sensor_id;sensor_type;location;lat;lon;timestamp;P1;durP1;ratioP1;P2;durP2;ratioP2
55647;SDS011;45266;48.756;9.246;2024-02-15T00:00:58;1.30;;;1.20;;
55647;SDS011;45266;48.756;9.246;2024-02-15T00:06:01;2.60;;;1.17;;
55647;SDS011;45266;48.756;9.246;2024-02-15T00:11:03;2.37;;;1.43;;
55647;SDS011;45266;48.756;9.246;2024-02-15T00:16:05;1.67;;;1.57;;
55647;SDS011;45266;48.756;9.246;2024-02-15T00:21:07;2.33;;;1.30;;
55647;SDS011;45266;48.756;9.246;2024-02-15T00:26:09;1.83;;;1.53;;
55647;SDS011;45266;48.756;9.246;2024-02-15T00:31:13;2.00;;;1.30;;
55647;SDS011;45266;48.756;9.246;2024-02-15T00:36:15;5.17;;;1.30;;
55647;SDS011;45266;48.756;9.246;2024-02-15T00:41:17;3.33;;;1.80;;
55647;SDS011;45266;48.756;9.246;2024-02-15T00:46:22;3.33;;;1.70;;
55647;SDS011;45266;48.756;9.246;2024-02-15T00:51:24;1.70;;;1.50;;
55647;SDS011;45266;48.756;9.246;2024-02-15T00:56:26;2.03;;;1.87;;
55647;SDS011;45266;48.756;9.246;2024-02-15T01:01:29;2.60;;;1.80;;
55647;SDS011;45266;48.756;9.246;2024-02-15T01:06:30;1.50;;;1.20;;
55647;SDS011;45266;48.756;9.246;2024-02-15T01:11:32;3.60;;;1.50;;
55647;SDS011;45266;48.756;9.246;2024-02-15T01:16:35;1.67;;;1.57;;
55647;SDS011;45266;48.756;9.246;2024-02-15T01:21:38;3.17;;;0.90;;
55647;SDS011;45266;48.756;9.246;2024-02-15T01:26:40;4.17;;;1.27;;
55647;SDS011;45266;48.756;9.246;2024-02-15T01:31:42;1.67;;;1.50;;
55647;SDS011;45266;48.756;9.246;2024-02-15T01:36:46;3.60;;;1.00;;
55647;SDS011;45266;48.756;9.246;2024-02-15T01:41:49;1.37;;;1.27;;
55647;SDS011;45266;48.756;9.246;2024-02-15T01:46:57;1.53;;;1.20;;
55647;SDS011;45266;48.756;9.246;2024-02-15T01:52:00;3.03;;;1.20;;
55647;SDS011;45266;48.756;9.246;2024-02-15T01:57:03;2.10;;;1.10;;
55647;SDS011;45266;48.756;9.246;2024-02-15T02:02:08;2.53;;;1.17;;
55647;SDS011;45266;48.756;9.246;2024-02-15T02:07:12;1.80;;;1.17;;
55647;SDS011;45266;48.756;9.246;2024-02-15T02:12:16;2.03;;;1.17;;
55647;SDS011;45266;48.756;9.246;2024-02-15T02:17:19;1.77;;;1.13;;
55647;SDS011;45266;48.756;9.246;2024-02-15T02:22:21;4.00;;;1.27;;
55647;SDS011;45266;48.756;9.246;2024-02-15T02:27:23;1.30;;;1.10;;
55647;SDS011;45266;48.756;9.246;2024-02-15T02:32:27;1.40;;;1.00;;
55647;SDS011;45266;48.756;9.246;2024-02-15T02:37:29;1.50;;;1.23;;
55647;SDS011;45266;48.756;9.246;2024-02-15T02:42:31;1.17;;;1.10;;
55647;SDS011;45266;48.756;9.246;2024-02-15T02:47:33;15.90;;;1.47;;
55647;SDS011;45266;48.756;9.246;2024-02-15T02:52:35;4.30;;;1.23;;
55647;SDS011;45266;48.756;9.246;2024-02-15T02:57:40;1.30;;;1.20;;
55647;SDS011;45266;48.756;9.246;2024-02-15T03:02:43;3.13;;;1.00;;
55647;SDS011;45266;48.756;9.246;2024-02-15T03:07:47;2.67;;;2.03;;
55647;SDS011;45266;48.756;9.246;2024-02-15T03:12:50;1.53;;;1.00;;
55647;SDS011;45266;48.756;9.246;2024-02-15T03:17:51;1.30;;;1.00;;
55647;SDS011;45266;48.756;9.246;2024-02-15T03:22:54;1.60;;;1.50;;
55647;SDS011;45266;48.756;9.246;2024-02-15T03:27:57;3.20;;;1.30;;
55647;SDS011;45266;48.756;9.246;2024-02-15T03:33:00;1.10;;;1.00;;
55647;SDS011;45266;48.756;9.246;2024-02-15T03:38:04;1.20;;;1.20;;
55647;SDS011;45266;48.756;9.246;2024-02-15T03:43:08;1.63;;;1.20;;
55647;SDS011;45266;48.756;9.246;2024-02-15T03:48:10;3.70;;;1.30;;
55647;SDS011;45266;48.756;9.246;2024-02-15T03:53:12;8.03;;;1.20;;
55647;SDS011;45266;48.756;9.246;2024-02-15T03:58:15;4.10;;;1.20;;
55647;SDS011;45266;48.756;9.246;2024-02-15T04:03:17;1.37;;;1.00;;
55647;SDS011;45266;48.756;9.246;2024-02-15T04:08:18;1.93;;;1.27;;
55647;SDS011;45266;48.756;9.246;2024-02-15T04:13:20;1.67;;;1.30;;
55647;SDS011;45266;48.756;9.246;2024-02-15T04:18:22;1.80;;;1.70;;
55647;SDS011;45266;48.756;9.246;2024-02-15T04:23:24;3.17;;;1.57;;
55647;SDS011;45266;48.756;9.246;2024-02-15T04:28:26;1.67;;;1.50;;
55647;SDS011;45266;48.756;9.246;2024-02-15T04:33:28;1.40;;;1.23;;
55647;SDS011;45266;48.756;9.246;2024-02-15T04:38:30;1.40;;;1.20;;
55647;SDS011;45266;48.756;9.246;2024-02-15T04:43:32;2.53;;;1.87;;
55647;SDS011;45266;48.756;9.246;2024-02-15T04:48:34;1.83;;;1.50;;
55647;SDS011;45266;48.756;9.246;2024-02-15T04:53:37;2.10;;;1.40;;
55647;SDS011;45266;48.756;9.246;2024-02-15T04:58:40;1.90;;;1.60;;
55647;SDS011;45266;48.756;9.246;2024-02-15T05:03:47;3.30;;;1.60;;
55647;SDS011;45266;48.756;9.246;2024-02-15T05:08:49;1.93;;;1.60;;
55647;SDS011;45266;48.756;9.246;2024-02-15T05:13:51;3.70;;;2.40;;
55647;SDS011;45266;48.756;9.246;2024-02-15T05:18:53;2.83;;;2.00;;
55647;SDS011;45266;48.756;9.246;2024-02-15T05:23:55;4.73;;;2.17;;
55647;SDS011;45266;48.756;9.246;2024-02-15T05:28:59;3.47;;;2.00;;
55647;SDS011;45266;48.756;9.246;2024-02-15T05:34:00;3.53;;;2.33;;
55647;SDS011;45266;48.756;9.246;2024-02-15T05:39:03;5.70;;;3.00;;
55647;SDS011;45266;48.756;9.246;2024-02-15T05:44:06;3.43;;;3.00;;
55647;SDS011;45266;48.756;9.246;2024-02-15T05:49:08;6.03;;;3.17;;
55647;SDS011;45266;48.756;9.246;2024-02-15T05:54:16;5.27;;;3.07;;
55647;SDS011;45266;48.756;9.246;2024-02-15T05:59:20;7.03;;;2.63;;
55647;SDS011;45266;48.756;9.246;2024-02-15T06:04:22;4.63;;;3.10;;
55647;SDS011;45266;48.756;9.246;2024-02-15T06:09:25;3.77;;;2.93;;
55647;SDS011;45266;48.756;9.246;2024-02-15T06:14:29;7.03;;;3.03;;
55647;SDS011;45266;48.756;9.246;2024-02-15T06:19:30;4.70;;;3.20;;
55647;SDS011;45266;48.756;9.246;2024-02-15T06:24:34;6.40;;;4.03;;
55647;SDS011;45266;48.756;9.246;2024-02-15T06:29:35;4.40;;;3.30;;
55647;SDS011;45266;48.756;9.246;2024-02-15T06:34:57;5.23;;;3.60;;
55647;SDS011;45266;48.756;9.246;2024-02-15T06:40:19;5.73;;;4.20;;
55647;SDS011;45266;48.756;9.246;2024-02-15T06:45:21;6.97;;;3.90;;
55647;SDS011;45266;48.756;9.246;2024-02-15T06:50:23;6.67;;;4.20;;
55647;SDS011;45266;48.756;9.246;2024-02-15T06:55:26;7.23;;;4.00;;
55647;SDS011;45266;48.756;9.246;2024-02-15T07:00:28;4.67;;;3.50;;
55647;SDS011;45266;48.756;9.246;2024-02-15T07:05:32;5.83;;;4.30;;
55647;SDS011;45266;48.756;9.246;2024-02-15T07:10:34;12.80;;;4.80;;
55647;SDS011;45266;48.756;9.246;2024-02-15T07:15:40;8.50;;;4.03;;
55647;SDS011;45266;48.756;9.246;2024-02-15T07:20:42;4.30;;;3.63;;
55647;SDS011;45266;48.756;9.246;2024-02-15T07:25:53;5.33;;;3.83;;
55647;SDS011;45266;48.756;9.246;2024-02-15T07:30:55;11.23;;;4.23;;
55647;SDS011;45266;48.756;9.246;2024-02-15T07:35:57;7.43;;;4.50;;
55647;SDS011;45266;48.756;9.246;2024-02-15T07:40:59;9.03;;;4.93;;
55647;SDS011;45266;48.756;9.246;2024-02-15T07:46:01;6.00;;;4.57;;
55647;SDS011;45266;48.756;9.246;2024-02-15T07:51:04;12.33;;;6.17;;
55647;SDS011;45266;48.756;9.246;2024-02-15T07:56:08;7.07;;;5.00;;
55647;SDS011;45266;48.756;9.246;2024-02-15T08:01:11;9.70;;;5.33;;
55647;SDS011;45266;48.756;9.246;2024-02-15T08:06:15;4.93;;;4.43;;
55647;SDS011;45266;48.756;9.246;2024-02-15T08:11:19;7.33;;;4.93;;
55647;SDS011;45266;48.756;9.246;2024-02-15T08:16:22;6.77;;;4.33;;
55647;SDS011;45266;48.756;9.246;2024-02-15T08:21:28;7.10;;;4.40;;
55647;SDS011;45266;48.756;9.246;2024-02-15T08:26:40;4.50;;;3.97;;
55647;SDS011;45266;48.756;9.246;2024-02-15T08:31:43;9.40;;;4.77;;
55647;SDS011;45266;48.756;9.246;2024-02-15T08:36:46;10.43;;;4.70;;
55647;SDS011;45266;48.756;9.246;2024-02-15T08:41:50;7.00;;;4.27;;
55647;SDS011;45266;48.756;9.246;2024-02-15T08:46:54;3.80;;;3.20;;
55647;SDS011;45266;48.756;9.246;2024-02-15T08:51:57;6.43;;;4.43;;
55647;SDS011;45266;48.756;9.246;2024-02-15T08:57:00;5.23;;;3.37;;
55647;SDS011;45266;48.756;9.246;2024-02-15T09:02:03;5.57;;;4.13;;
55647;SDS011;45266;48.756;9.246;2024-02-15T09:07:10;6.30;;;3.53;;
55647;SDS011;45266;48.756;9.246;2024-02-15T09:12:12;6.10;;;3.80;;
55647;SDS011;45266;48.756;9.246;2024-02-15T09:17:15;5.60;;;3.00;;
55647;SDS011;45266;48.756;9.246;2024-02-15T09:22:17;8.37;;;4.07;;
55647;SDS011;45266;48.756;9.246;2024-02-15T09:27:29;6.97;;;3.40;;
55647;SDS011;45266;48.756;9.246;2024-02-15T09:32:31;3.77;;;3.37;;
55647;SDS011;45266;48.756;9.246;2024-02-15T09:37:36;5.40;;;3.60;;
55647;SDS011;45266;48.756;9.246;2024-02-15T09:42:47;5.03;;;3.20;;
55647;SDS011;45266;48.756;9.246;2024-02-15T09:47:49;7.60;;;3.20;;
55647;SDS011;45266;48.756;9.246;2024-02-15T09:52:52;4.30;;;2.83;;
55647;SDS011;45266;48.756;9.246;2024-02-15T09:57:55;6.33;;;3.80;;
55647;SDS011;45266;48.756;9.246;2024-02-15T10:02:57;5.10;;;3.20;;
55647;SDS011;45266;48.756;9.246;2024-02-15T10:08:03;4.13;;;3.03;;
55647;SDS011;45266;48.756;9.246;2024-02-15T10:13:05;3.67;;;2.70;;
55647;SDS011;45266;48.756;9.246;2024-02-15T10:18:08;3.57;;;2.67;;
55647;SDS011;45266;48.756;9.246;2024-02-15T10:23:15;3.23;;;2.40;;
55647;SDS011;45266;48.756;9.246;2024-02-15T10:28:20;2.93;;;2.27;;
55647;SDS011;45266;48.756;9.246;2024-02-15T10:33:28;3.17;;;2.17;;
55647;SDS011;45266;48.756;9.246;2024-02-15T10:38:31;3.00;;;2.40;;
55647;SDS011;45266;48.756;9.246;2024-02-15T10:43:34;3.67;;;2.13;;
55647;SDS011;45266;48.756;9.246;2024-02-15T10:48:39;3.10;;;2.07;;
55647;SDS011;45266;48.756;9.246;2024-02-15T10:53:44;2.90;;;1.67;;
55647;SDS011;45266;48.756;9.246;2024-02-15T10:59:00;2.40;;;1.63;;
55647;SDS011;45266;48.756;9.246;2024-02-15T11:04:19;7.43;;;1.43;;
55647;SDS011;45266;48.756;9.246;2024-02-15T11:09:26;1.63;;;1.20;;
55647;SDS011;45266;48.756;9.246;2024-02-15T11:14:31;3.57;;;1.30;;
55647;SDS011;45266;48.756;9.246;2024-02-15T11:24:47;3.60;;;1.60;;
55647;SDS011;45266;48.756;9.246;2024-02-15T11:29:56;3.47;;;1.40;;
55647;SDS011;45266;48.756;9.246;2024-02-15T11:40:15;2.00;;;1.43;;
55647;SDS011;45266;48.756;9.246;2024-02-15T11:45:19;1.07;;;1.00;;
55647;SDS011;45266;48.756;9.246;2024-02-15T11:50:22;1.07;;;0.80;;
55647;SDS011;45266;48.756;9.246;2024-02-15T11:55:24;1.13;;;1.00;;
55647;SDS011;45266;48.756;9.246;2024-02-15T12:00:28;1.63;;;0.87;;
55647;SDS011;45266;48.756;9.246;2024-02-15T12:05:49;1.53;;;0.83;;
55647;SDS011;45266;48.756;9.246;2024-02-15T12:11:13;3.20;;;1.10;;
55647;SDS011;45266;48.756;9.246;2024-02-15T12:16:35;2.40;;;1.00;;
55647;SDS011;45266;48.756;9.246;2024-02-15T12:21:56;0.80;;;0.80;;
55647;SDS011;45266;48.756;9.246;2024-02-15T12:26:59;2.67;;;2.10;;
55647;SDS011;45266;48.756;9.246;2024-02-15T12:32:04;3.50;;;1.10;;
55647;SDS011;45266;48.756;9.246;2024-02-15T12:37:06;0.90;;;0.90;;
55647;SDS011;45266;48.756;9.246;2024-02-15T12:42:10;2.40;;;1.00;;
55647;SDS011;45266;48.756;9.246;2024-02-15T12:47:19;1.63;;;0.93;;
55647;SDS011;45266;48.756;9.246;2024-02-15T12:52:33;1.17;;;0.90;;
55647;SDS011;45266;48.756;9.246;2024-02-15T12:57:41;2.33;;;0.83;;
55647;SDS011;45266;48.756;9.246;2024-02-15T13:02:48;3.43;;;0.80;;
55647;SDS011;45266;48.756;9.246;2024-02-15T13:07:52;3.63;;;0.77;;
55647;SDS011;45266;48.756;9.246;2024-02-15T13:12:57;0.93;;;0.80;;
55647;SDS011;45266;48.756;9.246;2024-02-15T13:18:00;1.33;;;0.70;;
55647;SDS011;45266;48.756;9.246;2024-02-15T13:23:07;1.90;;;1.03;;
55647;SDS011;45266;48.756;9.246;2024-02-15T13:28:11;1.00;;;0.90;;
55647;SDS011;45266;48.756;9.246;2024-02-15T13:33:15;2.50;;;1.30;;
55647;SDS011;45266;48.756;9.246;2024-02-15T13:38:18;2.37;;;1.50;;
55647;SDS011;45266;48.756;9.246;2024-02-15T13:43:26;4.40;;;1.67;;
55647;SDS011;45266;48.756;9.246;2024-02-15T13:48:30;1.10;;;1.00;;
55647;SDS011;45266;48.756;9.246;2024-02-15T13:53:33;2.10;;;1.20;;
55647;SDS011;45266;48.756;9.246;2024-02-15T13:58:36;4.20;;;1.00;;
55647;SDS011;45266;48.756;9.246;2024-02-15T14:03:40;2.50;;;1.00;;
55647;SDS011;45266;48.756;9.246;2024-02-15T14:08:43;1.27;;;1.17;;
55647;SDS011;45266;48.756;9.246;2024-02-15T14:13:44;2.10;;;1.03;;
55647;SDS011;45266;48.756;9.246;2024-02-15T14:18:46;3.40;;;1.30;;
55647;SDS011;45266;48.756;9.246;2024-02-15T14:23:51;1.47;;;1.37;;
55647;SDS011;45266;48.756;9.246;2024-02-15T14:28:53;6.43;;;1.10;;
55647;SDS011;45266;48.756;9.246;2024-02-15T14:33:56;2.33;;;1.43;;
55647;SDS011;45266;48.756;9.246;2024-02-15T14:38:58;1.43;;;1.03;;
55647;SDS011;45266;48.756;9.246;2024-02-15T14:44:00;3.30;;;1.33;;
55647;SDS011;45266;48.756;9.246;2024-02-15T14:49:02;2.87;;;1.00;;
55647;SDS011;45266;48.756;9.246;2024-02-15T14:54:04;5.77;;;1.37;;
55647;SDS011;45266;48.756;9.246;2024-02-15T14:59:06;2.77;;;1.30;;
55647;SDS011;45266;48.756;9.246;2024-02-15T15:04:09;2.47;;;1.40;;
55647;SDS011;45266;48.756;9.246;2024-02-15T15:09:13;6.60;;;2.93;;
55647;SDS011;45266;48.756;9.246;2024-02-15T15:14:33;7.13;;;4.30;;
55647;SDS011;45266;48.756;9.246;2024-02-15T15:19:36;11.60;;;3.17;;
55647;SDS011;45266;48.756;9.246;2024-02-15T15:24:38;3.90;;;1.97;;
55647;SDS011;45266;48.756;9.246;2024-02-15T15:29:40;4.10;;;2.07;;
55647;SDS011;45266;48.756;9.246;2024-02-15T15:34:42;1.90;;;1.10;;
55647;SDS011;45266;48.756;9.246;2024-02-15T15:39:44;10.57;;;1.40;;
55647;SDS011;45266;48.756;9.246;2024-02-15T15:44:46;5.13;;;1.70;;
55647;SDS011;45266;48.756;9.246;2024-02-15T15:49:49;5.43;;;1.10;;
55647;SDS011;45266;48.756;9.246;2024-02-15T15:54:54;8.90;;;1.40;;
55647;SDS011;45266;48.756;9.246;2024-02-15T15:59:56;3.40;;;1.20;;
55647;SDS011;45266;48.756;9.246;2024-02-15T16:04:58;2.20;;;1.00;;
55647;SDS011;45266;48.756;9.246;2024-02-15T16:10:02;2.97;;;1.17;;
55647;SDS011;45266;48.756;9.246;2024-02-15T16:15:06;7.63;;;2.40;;
55647;SDS011;45266;48.756;9.246;2024-02-15T16:20:14;3.00;;;1.53;;
55647;SDS011;45266;48.756;9.246;2024-02-15T16:25:16;6.93;;;1.87;;
55647;SDS011;45266;48.756;9.246;2024-02-15T16:30:18;4.30;;;3.17;;
55647;SDS011;45266;48.756;9.246;2024-02-15T16:35:20;4.00;;;2.90;;
55647;SDS011;45266;48.756;9.246;2024-02-15T16:40:24;2.80;;;1.83;;
55647;SDS011;45266;48.756;9.246;2024-02-15T16:45:26;4.80;;;1.80;;
55647;SDS011;45266;48.756;9.246;2024-02-15T16:50:28;2.73;;;1.50;;
55647;SDS011;45266;48.756;9.246;2024-02-15T16:55:30;6.50;;;1.40;;
55647;SDS011;45266;48.756;9.246;2024-02-15T17:00:33;6.90;;;1.83;;
55647;SDS011;45266;48.756;9.246;2024-02-15T17:05:35;3.00;;;2.07;;
55647;SDS011;45266;48.756;9.246;2024-02-15T17:10:37;5.87;;;1.67;;
55647;SDS011;45266;48.756;9.246;2024-02-15T17:15:41;7.05;;;2.10;;
55647;SDS011;45266;48.756;9.246;2024-02-15T17:20:43;5.03;;;1.93;;
55647;SDS011;45266;48.756;9.246;2024-02-15T17:25:45;5.20;;;1.83;;
55647;SDS011;45266;48.756;9.246;2024-02-15T17:30:47;5.50;;;2.60;;
55647;SDS011;45266;48.756;9.246;2024-02-15T17:35:49;5.20;;;2.70;;
55647;SDS011;45266;48.756;9.246;2024-02-15T17:40:52;4.20;;;2.03;;
55647;SDS011;45266;48.756;9.246;2024-02-15T17:45:54;3.27;;;2.30;;
55647;SDS011;45266;48.756;9.246;2024-02-15T17:50:56;11.10;;;2.60;;
55647;SDS011;45266;48.756;9.246;2024-02-15T17:55:58;3.67;;;2.13;;
55647;SDS011;45266;48.756;9.246;2024-02-15T18:01:02;3.27;;;2.20;;
55647;SDS011;45266;48.756;9.246;2024-02-15T18:06:04;2.53;;;2.20;;
55647;SDS011;45266;48.756;9.246;2024-02-15T18:11:08;2.10;;;1.90;;
55647;SDS011;45266;48.756;9.246;2024-02-15T18:16:11;4.60;;;2.13;;
55647;SDS011;45266;48.756;9.246;2024-02-15T18:21:14;2.33;;;1.97;;
55647;SDS011;45266;48.756;9.246;2024-02-15T18:26:16;2.20;;;1.70;;
55647;SDS011;45266;48.756;9.246;2024-02-15T18:31:18;8.97;;;2.27;;
55647;SDS011;45266;48.756;9.246;2024-02-15T18:36:20;4.53;;;2.40;;
55647;SDS011;45266;48.756;9.246;2024-02-15T18:41:22;7.23;;;2.30;;
55647;SDS011;45266;48.756;9.246;2024-02-15T18:46:24;4.90;;;2.27;;
55647;SDS011;45266;48.756;9.246;2024-02-15T18:51:26;6.13;;;1.83;;
55647;SDS011;45266;48.756;9.246;2024-02-15T18:56:28;2.90;;;1.90;;
55647;SDS011;45266;48.756;9.246;2024-02-15T19:01:29;4.03;;;1.90;;
55647;SDS011;45266;48.756;9.246;2024-02-15T19:06:33;1.80;;;1.70;;
55647;SDS011;45266;48.756;9.246;2024-02-15T19:11:41;8.67;;;2.10;;
55647;SDS011;45266;48.756;9.246;2024-02-15T19:16:43;7.27;;;2.80;;
55647;SDS011;45266;48.756;9.246;2024-02-15T19:21:46;3.57;;;2.10;;
55647;SDS011;45266;48.756;9.246;2024-02-15T19:26:50;5.93;;;2.80;;
55647;SDS011;45266;48.756;9.246;2024-02-15T19:31:52;7.17;;;2.87;;
55647;SDS011;45266;48.756;9.246;2024-02-15T19:36:54;7.93;;;2.80;;
55647;SDS011;45266;48.756;9.246;2024-02-15T19:42:08;7.93;;;2.57;;
55647;SDS011;45266;48.756;9.246;2024-02-15T19:47:10;7.37;;;3.70;;
55647;SDS011;45266;48.756;9.246;2024-02-15T19:52:13;4.53;;;2.10;;
55647;SDS011;45266;48.756;9.246;2024-02-15T19:57:16;6.63;;;2.83;;
55647;SDS011;45266;48.756;9.246;2024-02-15T20:02:20;4.90;;;2.50;;
55647;SDS011;45266;48.756;9.246;2024-02-15T20:07:22;5.97;;;3.07;;
55647;SDS011;45266;48.756;9.246;2024-02-15T20:12:30;2.80;;;2.40;;
55647;SDS011;45266;48.756;9.246;2024-02-15T20:17:32;5.17;;;2.80;;
55647;SDS011;45266;48.756;9.246;2024-02-15T20:22:36;3.50;;;2.80;;
55647;SDS011;45266;48.756;9.246;2024-02-15T20:27:42;4.27;;;2.10;;
55647;SDS011;45266;48.756;9.246;2024-02-15T20:32:44;3.00;;;2.70;;
55647;SDS011;45266;48.756;9.246;2024-02-15T20:37:46;3.80;;;2.23;;
55647;SDS011;45266;48.756;9.246;2024-02-15T20:42:48;7.63;;;2.60;;
55647;SDS011;45266;48.756;9.246;2024-02-15T20:47:50;6.33;;;2.67;;
55647;SDS011;45266;48.756;9.246;2024-02-15T20:52:52;5.83;;;2.30;;
55647;SDS011;45266;48.756;9.246;2024-02-15T20:57:54;2.97;;;2.67;;
55647;SDS011;45266;48.756;9.246;2024-02-15T21:02:56;2.43;;;2.20;;
55647;SDS011;45266;48.756;9.246;2024-02-15T21:07:58;5.47;;;3.23;;
55647;SDS011;45266;48.756;9.246;2024-02-15T21:13:00;3.87;;;2.93;;
55647;SDS011;45266;48.756;9.246;2024-02-15T21:18:02;2.30;;;2.03;;
55647;SDS011;45266;48.756;9.246;2024-02-15T21:23:04;4.10;;;2.70;;
55647;SDS011;45266;48.756;9.246;2024-02-15T21:28:07;5.07;;;2.77;;
55647;SDS011;45266;48.756;9.246;2024-02-15T21:33:09;3.43;;;2.70;;
55647;SDS011;45266;48.756;9.246;2024-02-15T21:38:11;2.97;;;2.60;;
55647;SDS011;45266;48.756;9.246;2024-02-15T21:43:13;3.20;;;2.37;;
55647;SDS011;45266;48.756;9.246;2024-02-15T21:48:14;3.37;;;2.80;;
55647;SDS011;45266;48.756;9.246;2024-02-15T21:53:17;5.57;;;3.00;;
55647;SDS011;45266;48.756;9.246;2024-02-15T21:58:19;4.70;;;2.60;;
55647;SDS011;45266;48.756;9.246;2024-02-15T22:03:21;6.30;;;2.43;;
55647;SDS011;45266;48.756;9.246;2024-02-15T22:08:24;4.80;;;2.50;;
55647;SDS011;45266;48.756;9.246;2024-02-15T22:13:26;3.03;;;2.43;;
55647;SDS011;45266;48.756;9.246;2024-02-15T22:18:27;4.50;;;2.97;;
55647;SDS011;45266;48.756;9.246;2024-02-15T22:23:30;7.43;;;3.67;;
55647;SDS011;45266;48.756;9.246;2024-02-15T22:28:32;2.67;;;2.07;;
55647;SDS011;45266;48.756;9.246;2024-02-15T22:33:34;3.97;;;2.27;;
55647;SDS011;45266;48.756;9.246;2024-02-15T22:38:38;3.93;;;2.77;;
55647;SDS011;45266;48.756;9.246;2024-02-15T22:43:40;5.37;;;2.90;;
55647;SDS011;45266;48.756;9.246;2024-02-15T22:48:42;2.80;;;2.03;;
55647;SDS011;45266;48.756;9.246;2024-02-15T22:53:45;3.47;;;2.67;;
55647;SDS011;45266;48.756;9.246;2024-02-15T22:58:47;3.50;;;2.50;;
55647;SDS011;45266;48.756;9.246;2024-02-15T23:03:49;7.40;;;2.47;;
55647;SDS011;45266;48.756;9.246;2024-02-15T23:08:51;9.23;;;3.60;;
55647;SDS011;45266;48.756;9.246;2024-02-15T23:13:52;3.50;;;2.00;;
55647;SDS011;45266;48.756;9.246;2024-02-15T23:18:54;2.80;;;2.20;;
55647;SDS011;45266;48.756;9.246;2024-02-15T23:23:56;4.83;;;2.37;;
55647;SDS011;45266;48.756;9.246;2024-02-15T23:28:59;2.27;;;2.03;;
55647;SDS011;45266;48.756;9.246;2024-02-15T23:34:00;4.63;;;2.27;;
55647;SDS011;45266;48.756;9.246;2024-02-15T23:39:02;3.00;;;2.63;;
55647;SDS011;45266;48.756;9.246;2024-02-15T23:44:28;6.00;;;3.50;;
55647;SDS011;45266;48.756;9.246;2024-02-15T23:49:34;2.70;;;2.30;;
55647;SDS011;45266;48.756;9.246;2024-02-15T23:54:36;3.13;;;2.53;;
55647;SDS011;45266;48.756;9.246;2024-02-15T23:59:39;4.10;;;2.60;;
